sensor_id;sensor_type;location;lat;lon;timestamp;temperature;humidity
19941;DHT22;10132;50.864;5.176;2023-09-08T00:00:58;19.60;99.90
19941;DHT22;10132;50.864;5.176;2023-09-08T00:02:59;19.50;99.90
19941;DHT22;10132;50.864;5.176;2023-09-08T00:05:01;19.50;99.90
19941;DHT22;10132;50.864;5.176;2023-09-08T00:07:04;19.40;99.90
19941;DHT22;10132;50.864;5.176;2023-09-08T00:09:06;19.30;99.90
19941;DHT22;10132;50.864;5.176;2023-09-08T00:11:08;19.10;99.90
19941;DHT22;10132;50.864;5.176;2023-09-08T00:13:10;18.90;99.90
19941;DHT22;10132;50.864;5.176;2023-09-08T00:15:13;18.80;99.90
19941;DHT22;10132;50.864;5.176;2023-09-08T00:17:15;18.70;99.90
19941;DHT22;10132;50.864;5.176;2023-09-08T00:19:17;18.70;99.90
19941;DHT22;10132;50.864;5.176;2023-09-08T00:21:19;18.80;99.90
19941;DHT22;10132;50.864;5.176;2023-09-08T00:23:21;18.90;99.90
19941;DHT22;10132;50.864;5.176;2023-09-08T00:25:22;19.00;99.90
19941;DHT22;10132;50.864;5.176;2023-09-08T00:27:24;18.90;99.90
19941;DHT22;10132;50.864;5.176;2023-09-08T00:29:26;18.90;99.90
19941;DHT22;10132;50.864;5.176;2023-09-08T00:31:30;18.80;99.90
19941;DHT22;10132;50.864;5.176;2023-09-08T00:33:31;18.80;99.90
19941;DHT22;10132;50.864;5.176;2023-09-08T00:35:33;18.80;99.90
19941;DHT22;10132;50.864;5.176;2023-09-08T00:37:35;18.90;99.90
19941;DHT22;10132;50.864;5.176;2023-09-08T00:39:38;18.80;99.90
19941;DHT22;10132;50.864;5.176;2023-09-08T00:41:40;18.80;99.90
19941;DHT22;10132;50.864;5.176;2023-09-08T00:43:42;18.80;99.90
19941;DHT22;10132;50.864;5.176;2023-09-08T00:45:45;18.80;99.90
19941;DHT22;10132;50.864;5.176;2023-09-08T00:47:49;19.00;99.90
19941;DHT22;10132;50.864;5.176;2023-09-08T00:49:52;19.20;99.90
19941;DHT22;10132;50.864;5.176;2023-09-08T00:51:54;19.20;99.90
19941;DHT22;10132;50.864;5.176;2023-09-08T00:53:56;19.10;99.90
19941;DHT22;10132;50.864;5.176;2023-09-08T00:55:59;18.80;99.90
19941;DHT22;10132;50.864;5.176;2023-09-08T00:58:02;18.60;99.90
19941;DHT22;10132;50.864;5.176;2023-09-08T01:00:05;18.40;99.90
19941;DHT22;10132;50.864;5.176;2023-09-08T01:02:07;18.10;99.90
19941;DHT22;10132;50.864;5.176;2023-09-08T01:04:11;18.00;99.90
19941;DHT22;10132;50.864;5.176;2023-09-08T01:06:13;18.10;99.90
19941;DHT22;10132;50.864;5.176;2023-09-08T01:08:16;18.20;99.90
19941;DHT22;10132;50.864;5.176;2023-09-08T01:10:19;18.20;99.90
19941;DHT22;10132;50.864;5.176;2023-09-08T01:12:21;18.20;99.90
19941;DHT22;10132;50.864;5.176;2023-09-08T01:14:23;18.20;99.90
19941;DHT22;10132;50.864;5.176;2023-09-08T01:16:25;18.20;99.90
19941;DHT22;10132;50.864;5.176;2023-09-08T01:18:27;18.20;99.90
19941;DHT22;10132;50.864;5.176;2023-09-08T01:20:40;18.20;99.90
19941;DHT22;10132;50.864;5.176;2023-09-08T01:23:01;18.20;99.90
19941;DHT22;10132;50.864;5.176;2023-09-08T01:25:12;18.10;99.90
19941;DHT22;10132;50.864;5.176;2023-09-08T01:27:16;18.10;99.90
19941;DHT22;10132;50.864;5.176;2023-09-08T01:29:19;18.20;99.90
19941;DHT22;10132;50.864;5.176;2023-09-08T01:31:24;18.20;99.90
19941;DHT22;10132;50.864;5.176;2023-09-08T01:33:25;18.20;99.90
19941;DHT22;10132;50.864;5.176;2023-09-08T01:35:27;18.20;99.90
19941;DHT22;10132;50.864;5.176;2023-09-08T01:37:29;18.20;99.90
19941;DHT22;10132;50.864;5.176;2023-09-08T01:39:30;18.10;99.90
19941;DHT22;10132;50.864;5.176;2023-09-08T01:41:33;18.10;99.90
19941;DHT22;10132;50.864;5.176;2023-09-08T01:43:35;18.00;99.90
19941;DHT22;10132;50.864;5.176;2023-09-08T01:45:37;17.90;99.90
19941;DHT22;10132;50.864;5.176;2023-09-08T01:47:39;17.80;99.90
19941;DHT22;10132;50.864;5.176;2023-09-08T01:49:41;17.70;99.90
19941;DHT22;10132;50.864;5.176;2023-09-08T01:51:43;17.60;99.90
19941;DHT22;10132;50.864;5.176;2023-09-08T01:53:45;17.60;99.90
19941;DHT22;10132;50.864;5.176;2023-09-08T01:55:47;17.60;99.90
19941;DHT22;10132;50.864;5.176;2023-09-08T01:57:50;17.50;99.90
19941;DHT22;10132;50.864;5.176;2023-09-08T01:59:52;17.50;99.90
19941;DHT22;10132;50.864;5.176;2023-09-08T02:01:54;17.40;99.90
19941;DHT22;10132;50.864;5.176;2023-09-08T02:03:56;17.40;99.90
19941;DHT22;10132;50.864;5.176;2023-09-08T02:05:58;17.40;99.90
19941;DHT22;10132;50.864;5.176;2023-09-08T02:08:00;17.40;99.90
19941;DHT22;10132;50.864;5.176;2023-09-08T02:10:05;17.40;99.90
19941;DHT22;10132;50.864;5.176;2023-09-08T02:12:07;17.40;99.90
19941;DHT22;10132;50.864;5.176;2023-09-08T02:14:09;17.50;99.90
19941;DHT22;10132;50.864;5.176;2023-09-08T02:16:13;17.50;99.90
19941;DHT22;10132;50.864;5.176;2023-09-08T02:18:15;17.50;99.90
19941;DHT22;10132;50.864;5.176;2023-09-08T02:20:17;17.60;99.90
19941;DHT22;10132;50.864;5.176;2023-09-08T02:22:18;17.60;99.90
19941;DHT22;10132;50.864;5.176;2023-09-08T02:24:20;17.60;99.90
19941;DHT22;10132;50.864;5.176;2023-09-08T02:26:22;17.60;99.90
19941;DHT22;10132;50.864;5.176;2023-09-08T02:28:24;17.70;99.90
19941;DHT22;10132;50.864;5.176;2023-09-08T02:30:28;17.60;99.90
19941;DHT22;10132;50.864;5.176;2023-09-08T02:32:29;17.60;99.90
19941;DHT22;10132;50.864;5.176;2023-09-08T02:34:34;17.60;99.90
19941;DHT22;10132;50.864;5.176;2023-09-08T02:36:37;17.40;99.90
19941;DHT22;10132;50.864;5.176;2023-09-08T02:38:39;17.50;99.90
19941;DHT22;10132;50.864;5.176;2023-09-08T02:40:41;17.50;99.90
19941;DHT22;10132;50.864;5.176;2023-09-08T02:42:44;17.50;99.90
19941;DHT22;10132;50.864;5.176;2023-09-08T02:44:46;17.50;99.90
19941;DHT22;10132;50.864;5.176;2023-09-08T02:46:49;17.50;99.90
19941;DHT22;10132;50.864;5.176;2023-09-08T02:48:51;17.50;99.90
19941;DHT22;10132;50.864;5.176;2023-09-08T02:50:53;17.50;99.90
19941;DHT22;10132;50.864;5.176;2023-09-08T02:52:55;17.50;99.90
19941;DHT22;10132;50.864;5.176;2023-09-08T02:54:57;17.50;99.90
19941;DHT22;10132;50.864;5.176;2023-09-08T02:56:59;17.50;99.90
19941;DHT22;10132;50.864;5.176;2023-09-08T02:59:00;17.60;99.90
19941;DHT22;10132;50.864;5.176;2023-09-08T03:01:12;17.60;99.90
19941;DHT22;10132;50.864;5.176;2023-09-08T03:03:16;17.60;99.90
19941;DHT22;10132;50.864;5.176;2023-09-08T03:05:17;17.70;99.90
19941;DHT22;10132;50.864;5.176;2023-09-08T03:07:19;17.60;99.90
19941;DHT22;10132;50.864;5.176;2023-09-08T03:09:21;17.60;99.90
19941;DHT22;10132;50.864;5.176;2023-09-08T03:11:22;17.50;99.90
19941;DHT22;10132;50.864;5.176;2023-09-08T03:13:24;17.40;99.90
19941;DHT22;10132;50.864;5.176;2023-09-08T03:15:27;17.50;99.90
19941;DHT22;10132;50.864;5.176;2023-09-08T03:17:29;17.50;99.90
19941;DHT22;10132;50.864;5.176;2023-09-08T03:19:32;17.50;99.90
19941;DHT22;10132;50.864;5.176;2023-09-08T03:21:34;17.40;99.90
19941;DHT22;10132;50.864;5.176;2023-09-08T03:23:36;17.40;99.90
19941;DHT22;10132;50.864;5.176;2023-09-08T03:25:37;17.40;99.90
19941;DHT22;10132;50.864;5.176;2023-09-08T03:27:39;17.30;99.90
19941;DHT22;10132;50.864;5.176;2023-09-08T03:29:41;17.30;99.90
19941;DHT22;10132;50.864;5.176;2023-09-08T03:31:43;17.20;99.90
19941;DHT22;10132;50.864;5.176;2023-09-08T03:33:44;17.20;99.90
19941;DHT22;10132;50.864;5.176;2023-09-08T03:35:48;17.10;99.90
19941;DHT22;10132;50.864;5.176;2023-09-08T03:37:49;17.00;99.90
19941;DHT22;10132;50.864;5.176;2023-09-08T03:39:51;17.00;99.90
19941;DHT22;10132;50.864;5.176;2023-09-08T03:41:53;17.00;99.90
19941;DHT22;10132;50.864;5.176;2023-09-08T03:43:54;17.00;99.90
19941;DHT22;10132;50.864;5.176;2023-09-08T03:45:56;17.00;99.90
19941;DHT22;10132;50.864;5.176;2023-09-08T03:47:58;16.90;99.90
19941;DHT22;10132;50.864;5.176;2023-09-08T03:50:00;16.90;99.90
19941;DHT22;10132;50.864;5.176;2023-09-08T03:52:04;16.90;99.90
19941;DHT22;10132;50.864;5.176;2023-09-08T03:54:06;16.90;99.90
19941;DHT22;10132;50.864;5.176;2023-09-08T03:56:08;17.00;99.90
19941;DHT22;10132;50.864;5.176;2023-09-08T03:58:10;16.90;99.90
19941;DHT22;10132;50.864;5.176;2023-09-08T04:00:13;16.90;99.90
19941;DHT22;10132;50.864;5.176;2023-09-08T04:02:19;16.90;99.90
19941;DHT22;10132;50.864;5.176;2023-09-08T04:04:21;16.90;99.90
19941;DHT22;10132;50.864;5.176;2023-09-08T04:06:23;16.90;99.90
19941;DHT22;10132;50.864;5.176;2023-09-08T04:08:27;16.90;99.90
19941;DHT22;10132;50.864;5.176;2023-09-08T04:10:29;16.90;99.90
19941;DHT22;10132;50.864;5.176;2023-09-08T04:12:31;16.90;99.90
19941;DHT22;10132;50.864;5.176;2023-09-08T04:14:33;17.00;99.90
19941;DHT22;10132;50.864;5.176;2023-09-08T04:16:35;17.00;99.90
19941;DHT22;10132;50.864;5.176;2023-09-08T04:18:36;17.10;99.90
19941;DHT22;10132;50.864;5.176;2023-09-08T04:20:39;17.10;99.90
19941;DHT22;10132;50.864;5.176;2023-09-08T04:22:41;17.10;99.90
19941;DHT22;10132;50.864;5.176;2023-09-08T04:24:44;17.10;99.90
19941;DHT22;10132;50.864;5.176;2023-09-08T04:26:46;17.10;99.90
19941;DHT22;10132;50.864;5.176;2023-09-08T04:28:48;17.00;99.90
19941;DHT22;10132;50.864;5.176;2023-09-08T04:30:50;17.10;99.90
19941;DHT22;10132;50.864;5.176;2023-09-08T04:32:52;17.10;99.90
19941;DHT22;10132;50.864;5.176;2023-09-08T04:34:54;17.10;99.90
19941;DHT22;10132;50.864;5.176;2023-09-08T04:36:56;17.10;99.90
19941;DHT22;10132;50.864;5.176;2023-09-08T04:38:58;17.10;99.90
19941;DHT22;10132;50.864;5.176;2023-09-08T04:41:01;17.10;99.90
19941;DHT22;10132;50.864;5.176;2023-09-08T04:43:03;17.10;99.90
19941;DHT22;10132;50.864;5.176;2023-09-08T04:45:06;17.10;99.90
19941;DHT22;10132;50.864;5.176;2023-09-08T04:47:08;17.10;99.90
19941;DHT22;10132;50.864;5.176;2023-09-08T04:49:10;17.10;99.90
19941;DHT22;10132;50.864;5.176;2023-09-08T04:51:12;17.10;99.90
19941;DHT22;10132;50.864;5.176;2023-09-08T04:53:14;17.10;99.90
19941;DHT22;10132;50.864;5.176;2023-09-08T04:55:17;17.10;99.90
19941;DHT22;10132;50.864;5.176;2023-09-08T04:57:21;17.10;99.90
19941;DHT22;10132;50.864;5.176;2023-09-08T04:59:24;17.10;99.90
19941;DHT22;10132;50.864;5.176;2023-09-08T05:01:26;17.10;99.90
19941;DHT22;10132;50.864;5.176;2023-09-08T05:03:30;17.10;99.90
19941;DHT22;10132;50.864;5.176;2023-09-08T05:05:32;17.10;99.90
19941;DHT22;10132;50.864;5.176;2023-09-08T05:07:34;17.10;99.90
19941;DHT22;10132;50.864;5.176;2023-09-08T05:09:35;17.20;99.90
19941;DHT22;10132;50.864;5.176;2023-09-08T05:11:37;17.30;99.90
19941;DHT22;10132;50.864;5.176;2023-09-08T05:13:40;17.40;99.90
19941;DHT22;10132;50.864;5.176;2023-09-08T05:15:42;17.40;99.90
19941;DHT22;10132;50.864;5.176;2023-09-08T05:17:49;17.40;99.90
19941;DHT22;10132;50.864;5.176;2023-09-08T05:19:50;17.40;99.90
19941;DHT22;10132;50.864;5.176;2023-09-08T05:21:54;17.40;99.90
19941;DHT22;10132;50.864;5.176;2023-09-08T05:23:56;17.40;99.90
19941;DHT22;10132;50.864;5.176;2023-09-08T05:25:57;17.40;99.90
19941;DHT22;10132;50.864;5.176;2023-09-08T05:27:59;17.40;99.90
19941;DHT22;10132;50.864;5.176;2023-09-08T05:30:04;17.40;99.90
19941;DHT22;10132;50.864;5.176;2023-09-08T05:32:07;17.30;99.90
19941;DHT22;10132;50.864;5.176;2023-09-08T05:34:09;17.40;99.90
19941;DHT22;10132;50.864;5.176;2023-09-08T05:36:11;17.40;99.90
19941;DHT22;10132;50.864;5.176;2023-09-08T05:38:12;17.40;99.90
19941;DHT22;10132;50.864;5.176;2023-09-08T05:40:15;17.20;99.90
19941;DHT22;10132;50.864;5.176;2023-09-08T05:42:16;17.20;99.90
19941;DHT22;10132;50.864;5.176;2023-09-08T05:44:19;17.20;99.90
19941;DHT22;10132;50.864;5.176;2023-09-08T05:46:22;17.20;99.90
19941;DHT22;10132;50.864;5.176;2023-09-08T05:48:24;17.30;99.90
19941;DHT22;10132;50.864;5.176;2023-09-08T05:50:25;17.40;99.90
19941;DHT22;10132;50.864;5.176;2023-09-08T05:52:27;17.50;99.90
19941;DHT22;10132;50.864;5.176;2023-09-08T05:54:29;17.50;99.90
19941;DHT22;10132;50.864;5.176;2023-09-08T05:56:34;17.60;99.90
19941;DHT22;10132;50.864;5.176;2023-09-08T05:58:36;17.60;99.90
19941;DHT22;10132;50.864;5.176;2023-09-08T06:00:37;17.70;99.90
19941;DHT22;10132;50.864;5.176;2023-09-08T06:02:41;17.90;99.90
19941;DHT22;10132;50.864;5.176;2023-09-08T06:04:43;18.00;99.90
19941;DHT22;10132;50.864;5.176;2023-09-08T06:06:45;18.20;99.90
19941;DHT22;10132;50.864;5.176;2023-09-08T06:08:47;18.30;99.90
19941;DHT22;10132;50.864;5.176;2023-09-08T06:10:49;18.50;99.90
19941;DHT22;10132;50.864;5.176;2023-09-08T06:12:51;18.60;99.90
19941;DHT22;10132;50.864;5.176;2023-09-08T06:14:53;18.60;99.90
19941;DHT22;10132;50.864;5.176;2023-09-08T06:16:54;18.70;99.90
19941;DHT22;10132;50.864;5.176;2023-09-08T06:18:57;18.70;99.90
19941;DHT22;10132;50.864;5.176;2023-09-08T06:21:01;18.80;99.90
19941;DHT22;10132;50.864;5.176;2023-09-08T06:23:03;18.90;99.90
19941;DHT22;10132;50.864;5.176;2023-09-08T06:25:06;18.90;99.90
19941;DHT22;10132;50.864;5.176;2023-09-08T06:27:08;19.00;99.90
19941;DHT22;10132;50.864;5.176;2023-09-08T06:29:09;19.00;99.90
19941;DHT22;10132;50.864;5.176;2023-09-08T06:31:11;19.10;99.90
19941;DHT22;10132;50.864;5.176;2023-09-08T06:33:15;19.20;99.90
19941;DHT22;10132;50.864;5.176;2023-09-08T06:35:18;19.30;99.90
19941;DHT22;10132;50.864;5.176;2023-09-08T06:37:20;19.40;99.90
19941;DHT22;10132;50.864;5.176;2023-09-08T06:39:22;19.50;99.90
19941;DHT22;10132;50.864;5.176;2023-09-08T06:41:24;19.60;99.90
19941;DHT22;10132;50.864;5.176;2023-09-08T06:43:27;19.70;99.90
19941;DHT22;10132;50.864;5.176;2023-09-08T06:45:29;19.80;99.90
19941;DHT22;10132;50.864;5.176;2023-09-08T06:47:30;19.90;99.90
19941;DHT22;10132;50.864;5.176;2023-09-08T06:49:32;20.10;99.90
19941;DHT22;10132;50.864;5.176;2023-09-08T06:51:35;20.20;99.90
19941;DHT22;10132;50.864;5.176;2023-09-08T06:53:37;20.40;99.90
19941;DHT22;10132;50.864;5.176;2023-09-08T06:55:39;20.60;99.90
19941;DHT22;10132;50.864;5.176;2023-09-08T06:57:41;20.80;99.90
19941;DHT22;10132;50.864;5.176;2023-09-08T06:59:43;21.00;99.90
19941;DHT22;10132;50.864;5.176;2023-09-08T07:01:45;21.10;99.90
19941;DHT22;10132;50.864;5.176;2023-09-08T07:03:47;21.30;99.90
19941;DHT22;10132;50.864;5.176;2023-09-08T07:05:49;21.40;99.90
19941;DHT22;10132;50.864;5.176;2023-09-08T07:07:52;21.40;99.90
19941;DHT22;10132;50.864;5.176;2023-09-08T07:09:54;21.60;99.90
19941;DHT22;10132;50.864;5.176;2023-09-08T07:11:56;21.80;99.90
19941;DHT22;10132;50.864;5.176;2023-09-08T07:13:58;22.10;99.90
19941;DHT22;10132;50.864;5.176;2023-09-08T07:16:00;22.10;99.90
19941;DHT22;10132;50.864;5.176;2023-09-08T07:18:03;22.20;99.90
19941;DHT22;10132;50.864;5.176;2023-09-08T07:20:06;22.30;99.90
19941;DHT22;10132;50.864;5.176;2023-09-08T07:22:08;22.40;99.90
19941;DHT22;10132;50.864;5.176;2023-09-08T07:24:11;22.60;99.90
19941;DHT22;10132;50.864;5.176;2023-09-08T07:26:13;22.70;99.90
19941;DHT22;10132;50.864;5.176;2023-09-08T07:28:17;22.70;99.90
19941;DHT22;10132;50.864;5.176;2023-09-08T07:30:19;22.90;99.90
19941;DHT22;10132;50.864;5.176;2023-09-08T07:32:21;23.00;99.90
19941;DHT22;10132;50.864;5.176;2023-09-08T07:34:25;23.00;99.90
19941;DHT22;10132;50.864;5.176;2023-09-08T07:36:27;22.90;99.90
19941;DHT22;10132;50.864;5.176;2023-09-08T07:38:29;22.90;99.90
19941;DHT22;10132;50.864;5.176;2023-09-08T07:40:33;22.90;99.90
19941;DHT22;10132;50.864;5.176;2023-09-08T07:42:35;22.90;99.90
19941;DHT22;10132;50.864;5.176;2023-09-08T07:44:37;23.10;99.90
19941;DHT22;10132;50.864;5.176;2023-09-08T07:46:39;23.20;99.90
19941;DHT22;10132;50.864;5.176;2023-09-08T07:48:41;23.50;99.90
19941;DHT22;10132;50.864;5.176;2023-09-08T07:50:43;23.70;99.90
19941;DHT22;10132;50.864;5.176;2023-09-08T07:52:45;24.00;99.90
19941;DHT22;10132;50.864;5.176;2023-09-08T07:54:46;24.10;99.90
19941;DHT22;10132;50.864;5.176;2023-09-08T07:56:49;24.30;99.90
19941;DHT22;10132;50.864;5.176;2023-09-08T07:58:51;24.30;99.90
19941;DHT22;10132;50.864;5.176;2023-09-08T08:00:53;24.40;99.90
19941;DHT22;10132;50.864;5.176;2023-09-08T08:02:55;24.50;99.90
19941;DHT22;10132;50.864;5.176;2023-09-08T08:04:58;24.60;99.90
19941;DHT22;10132;50.864;5.176;2023-09-08T08:07:00;24.60;99.90
19941;DHT22;10132;50.864;5.176;2023-09-08T08:09:03;24.60;99.90
19941;DHT22;10132;50.864;5.176;2023-09-08T08:11:09;24.70;99.90
19941;DHT22;10132;50.864;5.176;2023-09-08T08:13:13;24.90;99.90
19941;DHT22;10132;50.864;5.176;2023-09-08T08:15:15;24.90;99.90
19941;DHT22;10132;50.864;5.176;2023-09-08T08:17:16;25.10;99.90
19941;DHT22;10132;50.864;5.176;2023-09-08T08:19:20;25.20;99.90
19941;DHT22;10132;50.864;5.176;2023-09-08T08:21:22;25.40;99.90
19941;DHT22;10132;50.864;5.176;2023-09-08T08:23:24;25.40;99.90
19941;DHT22;10132;50.864;5.176;2023-09-08T08:25:26;25.60;99.90
19941;DHT22;10132;50.864;5.176;2023-09-08T08:27:28;25.60;99.90
19941;DHT22;10132;50.864;5.176;2023-09-08T08:29:32;25.70;99.90
19941;DHT22;10132;50.864;5.176;2023-09-08T08:31:33;25.70;99.90
19941;DHT22;10132;50.864;5.176;2023-09-08T08:33:35;25.40;99.90
19941;DHT22;10132;50.864;5.176;2023-09-08T08:35:37;25.50;99.90
19941;DHT22;10132;50.864;5.176;2023-09-08T08:37:40;25.60;99.90
19941;DHT22;10132;50.864;5.176;2023-09-08T08:39:42;25.70;99.90
19941;DHT22;10132;50.864;5.176;2023-09-08T08:41:44;25.90;99.90
19941;DHT22;10132;50.864;5.176;2023-09-08T08:43:47;26.20;99.90
19941;DHT22;10132;50.864;5.176;2023-09-08T08:45:52;26.20;99.90
19941;DHT22;10132;50.864;5.176;2023-09-08T08:47:56;26.40;99.90
19941;DHT22;10132;50.864;5.176;2023-09-08T08:50:00;26.30;99.90
19941;DHT22;10132;50.864;5.176;2023-09-08T08:52:02;26.50;99.90
19941;DHT22;10132;50.864;5.176;2023-09-08T08:54:08;26.50;99.90
19941;DHT22;10132;50.864;5.176;2023-09-08T08:56:10;26.50;99.90
19941;DHT22;10132;50.864;5.176;2023-09-08T08:58:12;26.50;99.90
19941;DHT22;10132;50.864;5.176;2023-09-08T09:00:15;26.70;99.90
19941;DHT22;10132;50.864;5.176;2023-09-08T09:02:21;26.80;99.90
19941;DHT22;10132;50.864;5.176;2023-09-08T09:04:24;26.90;99.90
19941;DHT22;10132;50.864;5.176;2023-09-08T09:06:26;27.00;99.90
19941;DHT22;10132;50.864;5.176;2023-09-08T09:08:29;27.10;99.90
19941;DHT22;10132;50.864;5.176;2023-09-08T09:10:31;27.00;99.90
19941;DHT22;10132;50.864;5.176;2023-09-08T09:12:33;27.20;99.90
19941;DHT22;10132;50.864;5.176;2023-09-08T09:14:35;27.10;99.90
19941;DHT22;10132;50.864;5.176;2023-09-08T09:16:39;27.30;99.90
19941;DHT22;10132;50.864;5.176;2023-09-08T09:18:58;27.20;99.90
19941;DHT22;10132;50.864;5.176;2023-09-08T09:21:01;27.40;99.90
19941;DHT22;10132;50.864;5.176;2023-09-08T09:23:03;27.50;99.90
19941;DHT22;10132;50.864;5.176;2023-09-08T09:25:05;27.60;99.90
19941;DHT22;10132;50.864;5.176;2023-09-08T09:27:08;27.80;99.90
19941;DHT22;10132;50.864;5.176;2023-09-08T09:29:12;28.10;99.90
19941;DHT22;10132;50.864;5.176;2023-09-08T09:31:14;28.00;99.90
19941;DHT22;10132;50.864;5.176;2023-09-08T09:33:17;27.70;99.90
19941;DHT22;10132;50.864;5.176;2023-09-08T09:35:22;27.70;99.90
19941;DHT22;10132;50.864;5.176;2023-09-08T09:37:40;27.90;99.90
19941;DHT22;10132;50.864;5.176;2023-09-08T09:39:42;28.20;99.90
19941;DHT22;10132;50.864;5.176;2023-09-08T09:41:52;28.30;99.90
19941;DHT22;10132;50.864;5.176;2023-09-08T09:43:55;28.40;99.90
19941;DHT22;10132;50.864;5.176;2023-09-08T09:45:56;28.50;99.90
19941;DHT22;10132;50.864;5.176;2023-09-08T09:47:58;28.40;99.90
19941;DHT22;10132;50.864;5.176;2023-09-08T09:50:00;28.50;99.90
19941;DHT22;10132;50.864;5.176;2023-09-08T09:52:04;28.60;99.90
19941;DHT22;10132;50.864;5.176;2023-09-08T09:54:06;28.80;99.90
19941;DHT22;10132;50.864;5.176;2023-09-08T09:56:09;28.70;99.90
19941;DHT22;10132;50.864;5.176;2023-09-08T09:58:11;28.70;99.90
19941;DHT22;10132;50.864;5.176;2023-09-08T10:00:15;28.50;97.40
19941;DHT22;10132;50.864;5.176;2023-09-08T10:02:18;28.60;99.90
19941;DHT22;10132;50.864;5.176;2023-09-08T10:04:21;28.70;99.90
19941;DHT22;10132;50.864;5.176;2023-09-08T10:06:23;28.50;93.40
19941;DHT22;10132;50.864;5.176;2023-09-08T10:08:28;28.30;99.90
19941;DHT22;10132;50.864;5.176;2023-09-08T10:10:33;28.60;99.90
19941;DHT22;10132;50.864;5.176;2023-09-08T10:12:37;28.80;99.90
19941;DHT22;10132;50.864;5.176;2023-09-08T10:14:41;29.10;99.90
19941;DHT22;10132;50.864;5.176;2023-09-08T10:16:44;29.00;93.70
19941;DHT22;10132;50.864;5.176;2023-09-08T10:18:47;29.10;81.50
19941;DHT22;10132;50.864;5.176;2023-09-08T10:20:52;28.80;99.90
19941;DHT22;10132;50.864;5.176;2023-09-08T10:22:59;29.10;99.90
19941;DHT22;10132;50.864;5.176;2023-09-08T10:25:05;29.20;62.90
19941;DHT22;10132;50.864;5.176;2023-09-08T10:27:09;29.00;98.10
19941;DHT22;10132;50.864;5.176;2023-09-08T10:29:11;29.30;99.90
19941;DHT22;10132;50.864;5.176;2023-09-08T10:31:14;29.20;99.90
19941;DHT22;10132;50.864;5.176;2023-09-08T10:33:17;29.20;84.00
19941;DHT22;10132;50.864;5.176;2023-09-08T10:35:19;29.20;99.90
19941;DHT22;10132;50.864;5.176;2023-09-08T10:37:23;29.10;99.90
19941;DHT22;10132;50.864;5.176;2023-09-08T10:39:33;29.20;99.90
19941;DHT22;10132;50.864;5.176;2023-09-08T10:41:40;29.30;99.90
19941;DHT22;10132;50.864;5.176;2023-09-08T10:43:43;29.70;99.90
19941;DHT22;10132;50.864;5.176;2023-09-08T10:45:45;29.80;94.00
19941;DHT22;10132;50.864;5.176;2023-09-08T10:47:57;29.70;99.90
19941;DHT22;10132;50.864;5.176;2023-09-08T10:49:59;29.60;99.90
19941;DHT22;10132;50.864;5.176;2023-09-08T10:52:07;29.70;99.90
19941;DHT22;10132;50.864;5.176;2023-09-08T10:54:10;29.80;62.00
19941;DHT22;10132;50.864;5.176;2023-09-08T10:56:12;29.80;81.30
19941;DHT22;10132;50.864;5.176;2023-09-08T10:58:20;29.80;37.70
19941;DHT22;10132;50.864;5.176;2023-09-08T11:00:22;29.90;64.10
19941;DHT22;10132;50.864;5.176;2023-09-08T11:02:34;30.00;99.90
19941;DHT22;10132;50.864;5.176;2023-09-08T11:04:37;30.20;99.90
19941;DHT22;10132;50.864;5.176;2023-09-08T11:06:39;30.50;99.90
19941;DHT22;10132;50.864;5.176;2023-09-08T11:08:42;30.30;98.70
19941;DHT22;10132;50.864;5.176;2023-09-08T11:10:45;30.10;71.30
19941;DHT22;10132;50.864;5.176;2023-09-08T11:12:47;30.20;99.90
19941;DHT22;10132;50.864;5.176;2023-09-08T11:14:53;30.50;99.90
19941;DHT22;10132;50.864;5.176;2023-09-08T11:16:57;30.70;67.20
19941;DHT22;10132;50.864;5.176;2023-09-08T11:19:00;30.60;99.50
19941;DHT22;10132;50.864;5.176;2023-09-08T11:21:08;30.60;95.90
19941;DHT22;10132;50.864;5.176;2023-09-08T11:23:10;30.60;69.20
19941;DHT22;10132;50.864;5.176;2023-09-08T11:25:12;30.60;37.70
19941;DHT22;10132;50.864;5.176;2023-09-08T11:27:15;30.50;90.10
19941;DHT22;10132;50.864;5.176;2023-09-08T11:29:17;30.30;49.10
19941;DHT22;10132;50.864;5.176;2023-09-08T11:31:21;30.50;60.00
19941;DHT22;10132;50.864;5.176;2023-09-08T11:33:23;30.60;88.60
19941;DHT22;10132;50.864;5.176;2023-09-08T11:35:31;30.70;98.70
19941;DHT22;10132;50.864;5.176;2023-09-08T11:37:36;30.70;80.00
19941;DHT22;10132;50.864;5.176;2023-09-08T11:39:39;30.60;22.00
19941;DHT22;10132;50.864;5.176;2023-09-08T11:41:41;30.60;99.90
19941;DHT22;10132;50.864;5.176;2023-09-08T11:43:43;30.90;98.50
19941;DHT22;10132;50.864;5.176;2023-09-08T11:45:45;31.10;62.90
19941;DHT22;10132;50.864;5.176;2023-09-08T11:47:49;31.10;75.80
19941;DHT22;10132;50.864;5.176;2023-09-08T11:49:52;31.20;71.60
19941;DHT22;10132;50.864;5.176;2023-09-08T11:51:55;31.30;92.20
19941;DHT22;10132;50.864;5.176;2023-09-08T11:53:58;31.50;32.70
19941;DHT22;10132;50.864;5.176;2023-09-08T11:56:00;31.50;65.30
19941;DHT22;10132;50.864;5.176;2023-09-08T11:58:02;31.50;21.40
19941;DHT22;10132;50.864;5.176;2023-09-08T12:00:06;31.40;1.00
19941;DHT22;10132;50.864;5.176;2023-09-08T12:02:10;31.60;15.30
19941;DHT22;10132;50.864;5.176;2023-09-08T12:04:18;31.70;65.40
19941;DHT22;10132;50.864;5.176;2023-09-08T12:06:24;31.50;1.00
19941;DHT22;10132;50.864;5.176;2023-09-08T12:08:26;31.30;26.40
19941;DHT22;10132;50.864;5.176;2023-09-08T12:10:28;31.30;1.00
19941;DHT22;10132;50.864;5.176;2023-09-08T12:12:30;31.60;27.30
19941;DHT22;10132;50.864;5.176;2023-09-08T12:14:40;31.50;1.00
19941;DHT22;10132;50.864;5.176;2023-09-08T12:16:43;31.50;10.10
19941;DHT22;10132;50.864;5.176;2023-09-08T12:18:45;31.70;43.40
19941;DHT22;10132;50.864;5.176;2023-09-08T12:21:03;31.80;1.00
19941;DHT22;10132;50.864;5.176;2023-09-08T12:23:06;31.90;1.00
19941;DHT22;10132;50.864;5.176;2023-09-08T12:25:09;32.00;1.00
19941;DHT22;10132;50.864;5.176;2023-09-08T12:27:10;31.60;1.00
19941;DHT22;10132;50.864;5.176;2023-09-08T12:29:12;31.80;1.00
19941;DHT22;10132;50.864;5.176;2023-09-08T12:31:15;31.10;1.00
19941;DHT22;10132;50.864;5.176;2023-09-08T12:33:17;31.20;18.40
19941;DHT22;10132;50.864;5.176;2023-09-08T12:35:21;31.50;1.00
19941;DHT22;10132;50.864;5.176;2023-09-08T12:37:26;31.70;72.20
19941;DHT22;10132;50.864;5.176;2023-09-08T12:39:29;31.80;1.00
19941;DHT22;10132;50.864;5.176;2023-09-08T12:41:30;31.80;1.00
19941;DHT22;10132;50.864;5.176;2023-09-08T12:43:32;31.80;1.00
19941;DHT22;10132;50.864;5.176;2023-09-08T12:45:35;31.50;1.00
19941;DHT22;10132;50.864;5.176;2023-09-08T12:47:37;31.70;1.00
19941;DHT22;10132;50.864;5.176;2023-09-08T12:49:38;31.80;1.00
19941;DHT22;10132;50.864;5.176;2023-09-08T12:51:40;32.00;1.00
19941;DHT22;10132;50.864;5.176;2023-09-08T12:53:44;32.10;4.70
19941;DHT22;10132;50.864;5.176;2023-09-08T12:55:46;32.00;1.00
19941;DHT22;10132;50.864;5.176;2023-09-08T12:57:48;32.40;1.00